createdAt,value
2022-09-15T00:02:01.018Z,1.38
2022-09-15T00:04:28.177Z,1.30
2022-09-15T00:06:55.252Z,1.20
2022-09-15T00:09:22.425Z,1.40
2022-09-15T00:11:49.569Z,1.00
2022-09-15T00:14:16.349Z,1.17
2022-09-15T00:16:43.478Z,1.50
2022-09-15T00:19:10.645Z,1.80
2022-09-15T00:21:39.056Z,1.60
2022-09-15T00:24:06.521Z,1.20
2022-09-15T00:26:33.619Z,1.25
2022-09-15T00:29:01.141Z,1.15
2022-09-15T00:31:29.149Z,1.20
2022-09-15T00:33:57.182Z,1.67
2022-09-15T00:36:24.798Z,1.30
2022-09-15T00:38:52.056Z,1.33
2022-09-15T00:41:20.443Z,1.30
2022-09-15T00:44:04.324Z,1.10
2022-09-15T00:46:33.755Z,1.25
2022-09-15T00:49:01.808Z,1.23
2022-09-15T00:51:33.300Z,1.50
2022-09-15T00:54:02.272Z,1.60
2022-09-15T00:56:29.872Z,1.40
2022-09-15T00:59:01.286Z,1.17
2022-09-15T01:01:28.803Z,1.27
2022-09-15T01:03:56.183Z,1.10
2022-09-15T01:06:29.232Z,1.30
2022-09-15T01:08:57.267Z,1.30
2022-09-15T01:11:24.764Z,1.40
2022-09-15T01:13:51.882Z,1.20
2022-09-15T01:16:20.103Z,1.10
2022-09-15T01:19:07.115Z,1.10
2022-09-15T01:21:37.288Z,0.93
2022-09-15T01:24:36.200Z,1.00
2022-09-15T01:27:30.488Z,1.20
2022-09-15T01:29:58.292Z,1.35
2022-09-15T01:32:49.463Z,1.27
2022-09-15T01:35:36.643Z,1.00
2022-09-15T01:38:04.764Z,1.20
2022-09-15T01:40:33.809Z,0.98
2022-09-15T01:43:02.351Z,0.93
2022-09-15T01:45:31.550Z,1.03
2022-09-15T01:47:59.316Z,1.00
2022-09-15T01:50:31.105Z,1.20
2022-09-15T01:52:59.772Z,1.10
2022-09-15T01:55:37.983Z,1.25
2022-09-15T01:58:05.080Z,1.15
2022-09-15T02:00:34.323Z,1.10
2022-09-15T02:03:04.273Z,1.10
2022-09-15T02:05:41.687Z,1.02
2022-09-15T02:08:25.409Z,0.85
2022-09-15T02:11:01.515Z,0.93
2022-09-15T02:13:28.987Z,0.88
2022-09-15T02:15:58.258Z,1.00
2022-09-15T02:18:34.583Z,0.88
2022-09-15T02:21:08.101Z,1.10
2022-09-15T02:23:39.587Z,0.95
2022-09-15T02:26:08.936Z,1.02
2022-09-15T02:28:37.987Z,1.20
2022-09-15T02:31:07.366Z,1.08
2022-09-15T02:33:38.395Z,1.10
2022-09-15T02:36:05.711Z,1.10
2022-09-15T02:38:35.582Z,1.03
2022-09-15T02:41:03.331Z,1.20
2022-09-15T02:43:31.058Z,1.40
2022-09-15T02:45:58.202Z,1.65
2022-09-15T02:48:25.312Z,1.60
2022-09-15T02:50:52.819Z,1.67
2022-09-15T02:53:19.926Z,1.55
2022-09-15T02:55:47.026Z,1.70
2022-09-15T02:58:14.074Z,1.40
2022-09-15T03:00:41.896Z,1.30
2022-09-15T03:03:09.208Z,1.00
2022-09-15T03:05:36.294Z,1.50
2022-09-15T03:08:03.551Z,1.35
2022-09-15T03:10:32.709Z,1.20
2022-09-15T03:12:59.830Z,1.20
2022-09-15T03:15:27.314Z,1.23
2022-09-15T03:17:55.086Z,1.13
2022-09-15T03:20:23.930Z,1.70
2022-09-15T03:22:51.190Z,1.38
2022-09-15T03:25:18.530Z,1.80
2022-09-15T03:27:45.750Z,1.80
2022-09-15T03:30:13.129Z,1.70
2022-09-15T03:32:40.455Z,1.70
2022-09-15T03:35:07.674Z,1.50
2022-09-15T03:37:34.835Z,1.33
2022-09-15T03:40:03.601Z,1.25
2022-09-15T03:42:30.754Z,1.50
2022-09-15T03:44:57.829Z,1.55
2022-09-15T03:47:24.918Z,1.20
2022-09-15T03:49:51.967Z,1.10
2022-09-15T03:52:19.091Z,1.40
2022-09-15T03:54:46.148Z,1.10
2022-09-15T03:57:13.242Z,1.20
2022-09-15T03:59:40.302Z,1.10
2022-09-15T04:02:07.387Z,0.90
2022-09-15T04:04:34.861Z,1.17
2022-09-15T04:07:02.037Z,1.40
2022-09-15T04:09:29.185Z,1.20
2022-09-15T04:11:56.253Z,1.33
2022-09-15T04:14:23.369Z,1.30
2022-09-15T04:16:50.812Z,1.48
2022-09-15T04:19:17.873Z,1.40
2022-09-15T04:21:47.271Z,1.20
2022-09-15T04:24:14.761Z,1.40
2022-09-15T04:26:41.750Z,1.20
2022-09-15T04:29:13.331Z,1.50
2022-09-15T04:31:40.706Z,1.30
2022-09-15T04:34:07.780Z,1.33
2022-09-15T04:36:34.846Z,1.17
2022-09-15T04:39:02.095Z,1.25
2022-09-15T04:41:29.261Z,1.13
2022-09-15T04:43:56.577Z,1.35
2022-09-15T04:46:23.689Z,1.23
2022-09-15T04:48:50.829Z,1.38
2022-09-15T04:51:19.064Z,1.40
2022-09-15T04:53:46.613Z,1.40
2022-09-15T04:56:15.197Z,1.15
2022-09-15T04:58:43.797Z,1.30
2022-09-15T05:01:13.289Z,1.33
2022-09-15T05:03:40.508Z,1.50
2022-09-15T05:06:08.372Z,1.25
2022-09-15T05:08:35.717Z,1.20
2022-09-15T05:11:03.898Z,1.43
2022-09-15T05:13:30.967Z,1.63
2022-09-15T05:16:03.992Z,1.35
2022-09-15T05:18:31.605Z,1.20
2022-09-15T05:20:59.192Z,1.38
2022-09-15T05:23:26.244Z,1.35
2022-09-15T05:26:01.167Z,1.50
2022-09-15T05:28:28.632Z,1.30
2022-09-15T05:30:56.201Z,1.42
2022-09-15T05:33:24.022Z,1.40
2022-09-15T05:35:52.892Z,1.27
2022-09-15T05:38:20.204Z,1.60
2022-09-15T05:40:47.396Z,1.17
2022-09-15T05:43:14.892Z,1.20
2022-09-15T05:45:42.967Z,1.10
2022-09-15T05:48:10.497Z,1.13
2022-09-15T05:50:38.596Z,1.20
2022-09-15T05:53:06.149Z,1.40
2022-09-15T05:55:37.344Z,1.20
2022-09-15T05:58:04.501Z,1.40
2022-09-15T06:00:31.753Z,1.63
2022-09-15T06:02:58.930Z,1.40
2022-09-15T06:05:26.044Z,1.50
2022-09-15T06:07:54.484Z,1.48
2022-09-15T06:10:22.732Z,1.40
2022-09-15T06:12:49.824Z,1.77
2022-09-15T06:15:16.924Z,1.52
2022-09-15T06:17:43.980Z,1.40
2022-09-15T06:20:11.050Z,1.67
2022-09-15T06:22:38.227Z,1.50
2022-09-15T06:25:05.764Z,1.80
2022-09-15T06:27:32.903Z,1.70
2022-09-15T06:30:00.158Z,1.83
2022-09-15T06:32:27.268Z,1.93
2022-09-15T06:34:54.340Z,2.17
2022-09-15T06:37:21.474Z,2.65
2022-09-15T06:39:48.171Z,2.10
2022-09-15T06:42:15.265Z,2.20
2022-09-15T06:44:42.370Z,2.42
2022-09-15T06:47:10.645Z,2.17
2022-09-15T06:49:37.863Z,2.28
2022-09-15T06:52:05.116Z,2.50
2022-09-15T06:54:32.222Z,2.25
2022-09-15T06:56:59.251Z,2.15
2022-09-15T06:59:26.338Z,2.20
2022-09-15T07:01:54.773Z,1.98
2022-09-15T07:04:22.731Z,1.30
2022-09-15T07:06:50.543Z,1.30
2022-09-15T07:09:17.595Z,0.90
2022-09-15T07:11:44.855Z,0.70
2022-09-15T07:14:12.311Z,0.90
2022-09-15T07:16:39.442Z,0.50
2022-09-15T07:19:06.486Z,0.57
2022-09-15T07:21:34.188Z,0.57
2022-09-15T07:24:05.138Z,0.50
2022-09-15T07:26:34.222Z,0.45
2022-09-15T07:29:02.902Z,0.47
2022-09-15T07:31:32.621Z,0.40
2022-09-15T07:34:00.142Z,0.32
2022-09-15T07:36:27.531Z,0.43
2022-09-15T07:38:54.715Z,0.20
2022-09-15T07:41:22.953Z,0.30
2022-09-15T07:43:51.272Z,0.17
2022-09-15T07:46:19.304Z,0.20
2022-09-15T07:48:47.209Z,0.20
2022-09-15T07:51:15.084Z,0.32
2022-09-15T07:53:42.571Z,0.20
2022-09-15T07:56:10.040Z,0.30
2022-09-15T07:58:37.315Z,0.30
2022-09-15T08:01:05.057Z,0.40
2022-09-15T08:03:32.377Z,0.35
2022-09-15T08:06:01.557Z,0.35
2022-09-15T08:08:29.049Z,0.40
2022-09-15T08:10:56.389Z,0.57
2022-09-15T08:13:24.280Z,0.52
2022-09-15T08:15:52.134Z,0.40
2022-09-15T08:18:19.257Z,0.30
2022-09-15T08:20:46.341Z,0.38
2022-09-15T08:23:13.443Z,0.50
2022-09-15T08:25:40.558Z,0.50
2022-09-15T08:28:08.317Z,0.32
2022-09-15T08:30:35.458Z,0.43
2022-09-15T08:33:02.590Z,0.40
2022-09-15T08:35:32.224Z,0.40
2022-09-15T08:37:59.362Z,0.40
2022-09-15T08:40:34.919Z,0.43
2022-09-15T08:43:06.001Z,0.33
2022-09-15T08:45:38.373Z,0.20
2022-09-15T08:48:08.383Z,0.40
2022-09-15T08:50:40.496Z,0.30
2022-09-15T08:53:27.545Z,0.30
2022-09-15T08:55:56.498Z,0.65
2022-09-15T08:58:25.376Z,0.50
2022-09-15T09:00:58.613Z,0.47
2022-09-15T09:03:41.437Z,0.38
2022-09-15T09:06:28.482Z,0.40
2022-09-15T09:09:15.460Z,0.40
2022-09-15T09:11:49.745Z,0.40
2022-09-15T09:14:17.815Z,0.40
2022-09-15T09:17:04.821Z,0.40
2022-09-15T09:19:53.035Z,0.33
2022-09-15T09:22:25.534Z,0.40
2022-09-15T09:24:53.981Z,0.30
2022-09-15T09:27:23.612Z,0.30
2022-09-15T09:29:54.808Z,0.40
2022-09-15T09:32:25.246Z,0.40
2022-09-15T09:34:54.251Z,0.60
2022-09-15T09:37:21.392Z,0.30
2022-09-15T09:39:48.889Z,0.40
2022-09-15T09:42:18.334Z,0.38
2022-09-15T09:44:46.212Z,0.30
2022-09-15T09:47:13.604Z,0.60
2022-09-15T09:49:44.392Z,0.60
2022-09-15T09:52:12.290Z,0.50
2022-09-15T09:54:39.377Z,0.40
2022-09-15T09:57:13.953Z,0.40
2022-09-15T09:59:43.329Z,0.40
2022-09-15T10:02:10.983Z,0.40
2022-09-15T10:04:39.940Z,0.40
2022-09-15T10:07:08.140Z,0.50
2022-09-15T10:09:35.571Z,0.50
2022-09-15T10:12:04.292Z,0.60
2022-09-15T10:14:33.579Z,0.70
2022-09-15T10:17:04.162Z,0.60
2022-09-15T10:19:33.233Z,0.73
2022-09-15T10:22:01.532Z,0.70
2022-09-15T10:24:28.595Z,0.75
2022-09-15T10:27:15.580Z,0.70
2022-09-15T10:29:42.675Z,0.90
2022-09-15T10:32:29.723Z,0.80
2022-09-15T10:35:04.220Z,0.80
2022-09-15T10:37:36.042Z,0.75
2022-09-15T10:40:11.656Z,0.80
2022-09-15T10:42:38.751Z,0.80
2022-09-15T10:45:14.402Z,1.10
2022-09-15T10:47:49.486Z,0.90
2022-09-15T10:50:36.455Z,0.77
2022-09-15T10:53:23.429Z,0.90
2022-09-15T10:55:53.183Z,1.00
2022-09-15T10:58:28.903Z,1.00
2022-09-15T11:00:56.303Z,1.00
2022-09-15T11:03:43.404Z,1.20
2022-09-15T11:06:17.374Z,1.33
2022-09-15T11:08:47.667Z,1.38
2022-09-15T11:11:19.231Z,1.52
2022-09-15T11:13:47.587Z,1.20
2022-09-15T11:16:15.660Z,1.40
2022-09-15T11:18:47.690Z,1.60
2022-09-15T11:21:22.238Z,1.45
2022-09-15T11:23:58.122Z,1.37
2022-09-15T11:26:35.670Z,1.98
2022-09-15T11:29:08.067Z,2.00
2022-09-15T11:31:39.550Z,3.35
2022-09-15T11:34:12.790Z,1.70
2022-09-15T11:36:48.049Z,2.10
2022-09-15T11:39:35.063Z,2.20
2022-09-15T11:42:08.837Z,1.90
2022-09-15T11:44:38.160Z,1.70
2022-09-15T11:47:06.478Z,1.60
2022-09-15T11:49:43.669Z,1.42
2022-09-15T11:52:20.172Z,1.67
2022-09-15T11:54:54.073Z,1.70
2022-09-15T11:57:25.508Z,1.88
2022-09-15T11:59:52.522Z,2.05
2022-09-15T12:02:26.652Z,1.77
2022-09-15T12:04:54.820Z,1.90
2022-09-15T12:07:23.801Z,1.67
2022-09-15T12:09:51.534Z,2.05
2022-09-15T12:12:20.725Z,1.70
2022-09-15T12:14:49.102Z,1.80
2022-09-15T12:17:19.389Z,2.13
2022-09-15T12:19:49.764Z,2.25
2022-09-15T12:22:24.056Z,1.88
2022-09-15T12:25:01.126Z,2.10
2022-09-15T12:27:28.859Z,2.13
2022-09-15T12:29:56.768Z,2.10
2022-09-15T12:32:24.791Z,2.40
2022-09-15T12:35:13.661Z,2.50
2022-09-15T12:37:43.998Z,2.30
2022-09-15T12:40:26.806Z,2.13
2022-09-15T12:42:54.141Z,2.65
2022-09-15T12:45:27.120Z,2.63
2022-09-15T12:47:55.178Z,2.80
2022-09-15T12:50:25.538Z,2.58
2022-09-15T12:52:54.288Z,2.43
2022-09-15T12:55:23.873Z,2.75
2022-09-15T12:57:52.718Z,2.90
2022-09-15T13:00:20.823Z,2.85
2022-09-15T13:02:48.689Z,2.83
2022-09-15T13:05:35.651Z,2.90
2022-09-15T13:08:02.844Z,2.92
2022-09-15T13:10:36.140Z,2.80
2022-09-15T13:13:23.138Z,3.20
2022-09-15T13:15:51.413Z,2.72
2022-09-15T13:18:19.565Z,2.92
2022-09-15T13:20:51.170Z,2.80
2022-09-15T13:23:23.361Z,2.92
2022-09-15T13:25:50.896Z,3.20
2022-09-15T13:28:18.842Z,2.70
2022-09-15T13:31:05.904Z,3.20
2022-09-15T13:39:38.770Z,2.80
2022-09-15T13:42:25.829Z,2.28
2022-09-15T13:45:12.874Z,2.30
2022-09-15T13:47:55.557Z,2.35
2022-09-15T13:50:40.125Z,2.17
2022-09-15T13:53:20.825Z,2.20
2022-09-15T13:55:48.340Z,1.73
2022-09-15T14:01:06.635Z,2.20
2022-09-15T14:03:37.404Z,2.03
2022-09-15T14:06:12.208Z,2.15
2022-09-15T14:08:39.519Z,2.00
2022-09-15T14:11:08.605Z,1.70
2022-09-15T14:13:36.823Z,1.65
2022-09-15T14:16:12.478Z,1.88
2022-09-15T14:18:42.412Z,1.70
2022-09-15T14:21:25.899Z,1.83
2022-09-15T14:23:54.851Z,2.40
2022-09-15T14:26:24.024Z,1.92
2022-09-15T14:28:55.259Z,1.80
2022-09-15T14:31:41.063Z,2.40
2022-09-15T14:34:14.489Z,1.77
2022-09-15T14:36:41.795Z,2.00
2022-09-15T14:39:18.991Z,2.08
2022-09-15T14:41:47.477Z,2.45
2022-09-15T14:47:19.464Z,1.90
2022-09-15T14:49:46.611Z,1.85
2022-09-15T14:52:27.117Z,2.00
2022-09-15T14:54:56.507Z,2.23
2022-09-15T14:57:30.640Z,1.90
2022-09-15T15:00:00.586Z,2.13
2022-09-15T15:02:50.583Z,2.10
2022-09-15T15:05:22.147Z,2.00
2022-09-15T15:07:50.210Z,1.95
2022-09-15T15:10:22.679Z,2.00
2022-09-15T15:12:51.742Z,1.70
2022-09-15T15:15:19.354Z,1.60
2022-09-15T15:17:50.887Z,1.45
2022-09-15T15:20:19.731Z,1.80
2022-09-15T15:22:47.020Z,1.30
2022-09-15T15:25:21.717Z,1.52
2022-09-15T15:27:53.118Z,1.45
2022-09-15T15:30:26.470Z,1.40
2022-09-15T15:32:53.975Z,1.45
2022-09-15T15:35:21.320Z,1.30
2022-09-15T15:37:48.418Z,1.50
2022-09-15T15:40:17.378Z,1.45
2022-09-15T15:43:04.459Z,1.40
2022-09-15T15:45:32.466Z,1.30
2022-09-15T15:47:59.686Z,1.45
2022-09-15T15:50:28.213Z,1.77
2022-09-15T15:52:55.619Z,1.50
2022-09-15T15:55:24.030Z,1.80
2022-09-15T15:57:53.522Z,1.70
2022-09-15T16:00:22.200Z,1.60
2022-09-15T16:02:49.695Z,1.60
2022-09-15T16:05:16.821Z,2.00
2022-09-15T16:07:45.869Z,2.10
2022-09-15T16:10:16.951Z,2.10
2022-09-15T16:12:44.133Z,1.90
2022-09-15T16:15:12.421Z,2.17
2022-09-15T16:17:44.349Z,2.15
2022-09-15T16:20:15.899Z,2.22
2022-09-15T16:22:43.485Z,2.30
2022-09-15T16:25:14.029Z,2.15
2022-09-15T16:27:41.100Z,2.33
2022-09-15T16:30:08.447Z,2.30
2022-09-15T16:32:35.522Z,2.40
2022-09-15T16:35:02.990Z,2.60
2022-09-15T16:37:30.057Z,2.08
2022-09-15T16:39:57.491Z,2.30
2022-09-15T16:42:25.797Z,2.47
2022-09-15T16:44:52.875Z,2.20
2022-09-15T16:47:19.910Z,2.40
2022-09-15T16:49:46.986Z,2.22
2022-09-15T16:52:14.057Z,2.42
2022-09-15T16:54:41.682Z,2.63
2022-09-15T16:57:08.692Z,2.20
2022-09-15T16:59:36.073Z,2.00
2022-09-15T17:02:03.247Z,2.10
2022-09-15T17:04:30.537Z,2.27
2022-09-15T17:06:57.561Z,1.90
2022-09-15T17:09:24.629Z,2.00
2022-09-15T17:11:51.793Z,2.30
2022-09-15T17:14:19.726Z,2.22
2022-09-15T17:16:52.574Z,2.50
2022-09-15T17:19:19.653Z,2.33
2022-09-15T17:21:47.102Z,2.25
2022-09-15T17:24:14.150Z,2.72
2022-09-15T17:26:41.171Z,2.60
2022-09-15T17:29:08.455Z,2.38
2022-09-15T17:31:35.518Z,2.60
2022-09-15T17:34:02.605Z,2.50
2022-09-15T17:36:29.766Z,2.50
2022-09-15T17:38:57.037Z,2.60
2022-09-15T17:41:24.130Z,2.70
2022-09-15T17:43:51.907Z,2.38
2022-09-15T17:46:19.152Z,2.77
2022-09-15T17:48:46.253Z,2.70
2022-09-15T17:51:16.387Z,2.70
2022-09-15T17:53:45.150Z,2.63
2022-09-15T17:56:12.349Z,2.88
2022-09-15T17:58:39.833Z,2.88
2022-09-15T18:01:07.065Z,3.00
2022-09-15T18:03:35.217Z,3.22
2022-09-15T18:06:04.997Z,3.00
2022-09-15T18:08:33.525Z,3.03
2022-09-15T18:11:00.975Z,2.73
2022-09-15T18:13:29.716Z,2.90
2022-09-15T18:15:56.975Z,3.08
2022-09-15T18:18:25.232Z,3.40
2022-09-15T18:20:53.086Z,5.10
2022-09-15T18:23:21.044Z,3.53
2022-09-15T18:25:48.257Z,3.67
2022-09-15T18:28:15.429Z,3.55
2022-09-15T18:30:44.143Z,3.20
2022-09-15T18:33:13.797Z,3.30
2022-09-15T18:35:41.251Z,3.50
2022-09-15T18:38:08.793Z,3.60
2022-09-15T18:40:35.798Z,3.60
2022-09-15T18:43:02.433Z,3.58
2022-09-15T18:45:29.130Z,4.38
2022-09-15T18:47:55.784Z,4.43
2022-09-15T18:50:23.817Z,4.07
2022-09-15T18:52:50.618Z,4.55
2022-09-15T18:55:19.404Z,5.72
2022-09-15T18:57:46.253Z,4.55
2022-09-15T19:00:16.646Z,4.32
2022-09-15T19:02:43.921Z,4.35
2022-09-15T19:05:11.500Z,4.25
2022-09-15T19:07:38.989Z,4.15
2022-09-15T19:10:07.361Z,4.60
2022-09-15T19:12:36.199Z,4.57
2022-09-15T19:15:04.294Z,4.75
2022-09-15T19:17:31.032Z,5.32
2022-09-15T19:19:57.988Z,5.20
2022-09-15T19:22:24.749Z,5.25
2022-09-15T19:24:51.355Z,5.38
2022-09-15T19:27:17.960Z,5.23
2022-09-15T19:29:44.716Z,5.35
2022-09-15T19:32:13.682Z,5.38
2022-09-15T19:34:42.127Z,4.80
2022-09-15T19:37:14.109Z,5.10
2022-09-15T19:39:43.660Z,4.85
2022-09-15T19:42:11.496Z,4.65
2022-09-15T19:44:38.670Z,5.60
2022-09-15T19:47:05.336Z,4.68
2022-09-15T19:49:32.117Z,5.47
2022-09-15T19:51:58.795Z,5.38
2022-09-15T19:54:28.064Z,5.57
2022-09-15T19:56:54.852Z,5.83
2022-09-15T19:59:22.237Z,4.88
2022-09-15T20:01:48.867Z,5.30
2022-09-15T20:04:16.093Z,4.87
2022-09-15T20:06:43.165Z,5.50
2022-09-15T20:09:10.537Z,5.28
2022-09-15T20:11:37.613Z,5.13
2022-09-15T20:14:06.336Z,5.05
2022-09-15T20:16:33.582Z,5.60
2022-09-15T20:19:00.571Z,5.53
2022-09-15T20:21:49.229Z,5.93
2022-09-15T20:24:17.004Z,5.25
2022-09-15T20:26:43.751Z,5.97
2022-09-15T20:29:10.661Z,6.38
2022-09-15T20:31:37.232Z,7.55
2022-09-15T20:34:03.818Z,5.15
2022-09-15T20:36:33.478Z,4.97
2022-09-15T20:39:01.743Z,5.10
2022-09-15T20:41:29.316Z,4.95
2022-09-15T20:43:56.304Z,4.78
2022-09-15T20:46:23.489Z,5.15
2022-09-15T20:48:51.455Z,5.47
2022-09-15T20:51:20.762Z,5.30
2022-09-15T20:53:49.566Z,5.32
2022-09-15T20:56:17.963Z,5.65
2022-09-15T20:58:44.647Z,5.38
2022-09-15T21:01:14.294Z,6.10
2022-09-15T21:03:42.686Z,5.72
2022-09-15T21:06:12.786Z,5.90
2022-09-15T21:08:40.079Z,6.30
2022-09-15T21:11:10.642Z,5.83
2022-09-15T21:13:39.091Z,5.75
2022-09-15T21:16:08.762Z,5.63
2022-09-15T21:18:39.090Z,5.60
2022-09-15T21:21:08.736Z,5.70
2022-09-15T21:23:37.776Z,5.95
2022-09-15T21:26:07.050Z,5.45
2022-09-15T21:28:34.982Z,5.38
2022-09-15T21:31:04.713Z,5.60
2022-09-15T21:33:31.850Z,5.57
2022-09-15T21:36:03.534Z,5.65
2022-09-15T21:38:30.359Z,5.63
2022-09-15T21:40:56.970Z,5.57
2022-09-15T21:43:23.535Z,5.80
2022-09-15T21:45:56.057Z,6.07
2022-09-15T21:48:22.749Z,5.90
2022-09-15T21:50:51.297Z,5.90
2022-09-15T21:53:20.211Z,6.13
2022-09-15T21:55:51.862Z,6.38
2022-09-15T21:58:20.102Z,6.07
2022-09-15T22:00:48.527Z,6.72
2022-09-15T22:03:16.179Z,7.18
2022-09-15T22:05:44.614Z,6.90
2022-09-15T22:08:12.978Z,6.32
2022-09-15T22:10:41.165Z,6.97
2022-09-15T22:13:09.701Z,6.80
2022-09-15T22:15:36.402Z,6.80
2022-09-15T22:18:03.654Z,7.25
2022-09-15T22:20:30.985Z,6.90
2022-09-15T22:23:01.169Z,7.90
2022-09-15T22:25:28.942Z,7.72
2022-09-15T22:27:55.657Z,7.20
2022-09-15T22:30:22.347Z,6.97
2022-09-15T22:32:49.029Z,7.45
2022-09-15T22:35:17.276Z,7.03
2022-09-15T22:37:44.008Z,6.83
2022-09-15T22:40:11.026Z,7.22
2022-09-15T22:42:38.156Z,6.88
2022-09-15T22:45:05.360Z,7.50
2022-09-15T22:47:33.123Z,6.80
2022-09-15T22:49:59.716Z,6.75
2022-09-15T22:52:26.388Z,6.97
2022-09-15T22:54:53.056Z,7.17
2022-09-15T22:57:19.736Z,6.75
2022-09-15T22:59:46.401Z,6.80
2022-09-15T23:02:13.154Z,7.10
2022-09-15T23:04:39.867Z,6.88
2022-09-15T23:07:07.075Z,7.80
2022-09-15T23:09:34.225Z,7.72
2022-09-15T23:12:00.941Z,7.63
2022-09-15T23:14:27.745Z,7.63
2022-09-15T23:16:54.398Z,7.18
2022-09-15T23:19:21.026Z,7.10
2022-09-15T23:21:47.725Z,7.00
2022-09-15T23:24:14.933Z,8.45
2022-09-15T23:26:41.633Z,7.05
2022-09-15T23:29:08.262Z,7.80
2022-09-15T23:31:34.978Z,8.02
2022-09-15T23:34:01.918Z,8.43
2022-09-15T23:36:28.597Z,8.20
2022-09-15T23:38:55.265Z,8.85
2022-09-15T23:41:22.001Z,8.88
2022-09-15T23:43:48.688Z,8.93
2022-09-15T23:46:15.646Z,9.80
2022-09-15T23:48:42.537Z,9.05
2022-09-15T23:51:10.292Z,9.88
2022-09-15T23:53:37.121Z,9.90
2022-09-15T23:56:03.940Z,10.47
2022-09-15T23:58:30.723Z,9.73
